sensor_id;sensor_type;location;lat;lon;timestamp;pressure;altitude;pressure_sealevel;temperature;humidity
36284;BME280;56085;48.910;9.478;2024-03-02T00:00:19;97063.41;;;12.54;50.39
36284;BME280;56085;48.910;9.478;2024-03-02T00:02:47;97062.16;;;12.66;49.93
36284;BME280;56085;48.910;9.478;2024-03-02T00:05:18;97065.78;;;12.56;50.16
36284;BME280;56085;48.910;9.478;2024-03-02T00:07:54;97063.72;;;12.71;50.97
36284;BME280;56085;48.910;9.478;2024-03-02T00:10:32;97065.25;;;12.75;50.62
36284;BME280;56085;48.910;9.478;2024-03-02T00:13:02;97066.94;;;12.62;50.53
36284;BME280;56085;48.910;9.478;2024-03-02T00:18:12;97069.19;;;12.85;50.03
36284;BME280;56085;48.910;9.478;2024-03-02T00:20:39;97056.44;;;12.91;49.67
36284;BME280;56085;48.910;9.478;2024-03-02T00:23:06;97056.81;;;12.93;49.82
36284;BME280;56085;48.910;9.478;2024-03-02T00:25:47;97056.81;;;12.97;49.98
36284;BME280;56085;48.910;9.478;2024-03-02T00:28:27;97062.38;;;12.93;49.96
36284;BME280;56085;48.910;9.478;2024-03-02T00:31:11;97064.00;;;12.87;50.38
36284;BME280;56085;48.910;9.478;2024-03-02T00:33:44;97059.31;;;12.77;50.23
36284;BME280;56085;48.910;9.478;2024-03-02T00:36:11;97061.28;;;12.80;50.13
36284;BME280;56085;48.910;9.478;2024-03-02T00:38:49;97056.03;;;12.93;49.95
36284;BME280;56085;48.910;9.478;2024-03-02T00:43:53;97071.88;;;12.96;49.26
36284;BME280;56085;48.910;9.478;2024-03-02T00:46:20;97074.31;;;12.87;49.35
36284;BME280;56085;48.910;9.478;2024-03-02T00:48:55;97073.81;;;12.99;49.55
36284;BME280;56085;48.910;9.478;2024-03-02T00:51:25;97081.38;;;12.99;49.21
36284;BME280;56085;48.910;9.478;2024-03-02T00:53:52;97079.88;;;12.83;49.54
36284;BME280;56085;48.910;9.478;2024-03-02T00:56:21;97069.94;;;12.86;49.49
36284;BME280;56085;48.910;9.478;2024-03-02T00:58:46;97071.25;;;12.70;49.87
36284;BME280;56085;48.910;9.478;2024-03-02T01:01:11;97068.44;;;12.78;49.83
36284;BME280;56085;48.910;9.478;2024-03-02T01:03:37;97075.13;;;12.84;49.49
36284;BME280;56085;48.910;9.478;2024-03-02T01:06:04;97079.50;;;12.81;49.74
36284;BME280;56085;48.910;9.478;2024-03-02T01:08:29;97077.91;;;12.84;49.56
36284;BME280;56085;48.910;9.478;2024-03-02T01:10:55;97080.72;;;12.77;49.44
36284;BME280;56085;48.910;9.478;2024-03-02T01:13:24;97075.94;;;12.81;49.41
36284;BME280;56085;48.910;9.478;2024-03-02T01:15:50;97074.72;;;12.82;49.41
36284;BME280;56085;48.910;9.478;2024-03-02T01:18:15;97068.13;;;12.65;49.52
36284;BME280;56085;48.910;9.478;2024-03-02T01:20:40;97066.03;;;12.76;49.41
36284;BME280;56085;48.910;9.478;2024-03-02T01:23:06;97066.03;;;12.80;49.34
36284;BME280;56085;48.910;9.478;2024-03-02T01:25:31;97067.59;;;12.84;49.37
36284;BME280;56085;48.910;9.478;2024-03-02T01:27:57;97066.81;;;12.80;48.93
36284;BME280;56085;48.910;9.478;2024-03-02T01:30:22;97067.56;;;12.88;48.96
36284;BME280;56085;48.910;9.478;2024-03-02T01:32:47;97063.22;;;12.83;49.12
36284;BME280;56085;48.910;9.478;2024-03-02T01:35:13;97058.03;;;12.89;48.82
36284;BME280;56085;48.910;9.478;2024-03-02T01:37:38;97055.63;;;12.95;49.14
36284;BME280;56085;48.910;9.478;2024-03-02T01:40:04;97066.41;;;12.82;49.12
36284;BME280;56085;48.910;9.478;2024-03-02T01:42:40;97066.91;;;12.69;49.46
36284;BME280;56085;48.910;9.478;2024-03-02T01:45:06;97065.31;;;12.72;49.20
36284;BME280;56085;48.910;9.478;2024-03-02T01:47:31;97066.16;;;12.58;49.97
36284;BME280;56085;48.910;9.478;2024-03-02T01:49:57;97062.19;;;12.59;49.91
36284;BME280;56085;48.910;9.478;2024-03-02T01:52:23;97065.38;;;12.54;49.65
36284;BME280;56085;48.910;9.478;2024-03-02T01:54:48;97065.03;;;12.45;49.95
36284;BME280;56085;48.910;9.478;2024-03-02T01:57:14;97063.91;;;12.38;49.89
36284;BME280;56085;48.910;9.478;2024-03-02T01:59:39;97069.88;;;12.30;49.61
36284;BME280;56085;48.910;9.478;2024-03-02T02:02:04;97067.88;;;12.30;49.39
36284;BME280;56085;48.910;9.478;2024-03-02T02:04:30;97062.75;;;12.29;49.54
36284;BME280;56085;48.910;9.478;2024-03-02T02:06:56;97065.53;;;12.25;49.55
36284;BME280;56085;48.910;9.478;2024-03-02T02:09:21;97073.34;;;12.41;49.32
36284;BME280;56085;48.910;9.478;2024-03-02T02:11:47;97064.28;;;12.37;49.19
36284;BME280;56085;48.910;9.478;2024-03-02T02:14:12;97066.28;;;12.33;49.51
36284;BME280;56085;48.910;9.478;2024-03-02T02:16:37;97067.50;;;12.28;49.72
36284;BME280;56085;48.910;9.478;2024-03-02T02:19:03;97056.41;;;12.28;49.50
36284;BME280;56085;48.910;9.478;2024-03-02T02:21:28;97056.50;;;12.03;49.72
36284;BME280;56085;48.910;9.478;2024-03-02T02:23:54;97052.88;;;12.20;49.44
36284;BME280;56085;48.910;9.478;2024-03-02T02:26:19;97046.47;;;12.31;49.04
36284;BME280;56085;48.910;9.478;2024-03-02T02:28:44;97054.06;;;12.27;49.30
36284;BME280;56085;48.910;9.478;2024-03-02T02:31:15;97048.03;;;12.39;49.26
36284;BME280;56085;48.910;9.478;2024-03-02T02:33:40;97042.56;;;12.25;49.08
36284;BME280;56085;48.910;9.478;2024-03-02T02:36:06;97041.38;;;12.22;49.43
36284;BME280;56085;48.910;9.478;2024-03-02T02:38:37;97044.16;;;12.26;49.55
36284;BME280;56085;48.910;9.478;2024-03-02T02:41:03;97043.81;;;12.05;49.77
36284;BME280;56085;48.910;9.478;2024-03-02T02:43:28;97030.72;;;12.13;49.25
36284;BME280;56085;48.910;9.478;2024-03-02T02:45:54;97035.91;;;12.11;49.09
36284;BME280;56085;48.910;9.478;2024-03-02T02:48:19;97036.72;;;12.01;49.54
36284;BME280;56085;48.910;9.478;2024-03-02T02:50:44;97033.94;;;12.08;49.14
36284;BME280;56085;48.910;9.478;2024-03-02T02:53:09;97031.22;;;11.90;49.34
36284;BME280;56085;48.910;9.478;2024-03-02T02:55:35;97025.25;;;11.92;49.62
36284;BME280;56085;48.910;9.478;2024-03-02T02:58:05;97026.84;;;11.89;49.44
36284;BME280;56085;48.910;9.478;2024-03-02T03:00:31;97028.88;;;11.74;49.63
36284;BME280;56085;48.910;9.478;2024-03-02T03:02:56;97021.31;;;11.89;49.58
36284;BME280;56085;48.910;9.478;2024-03-02T03:05:21;97023.31;;;11.81;49.75
36284;BME280;56085;48.910;9.478;2024-03-02T03:07:47;97011.03;;;11.93;49.34
36284;BME280;56085;48.910;9.478;2024-03-02T03:10:14;97014.59;;;11.94;49.36
36284;BME280;56085;48.910;9.478;2024-03-02T03:12:40;97012.59;;;11.91;49.81
36284;BME280;56085;48.910;9.478;2024-03-02T03:15:07;97013.44;;;11.77;50.12
36284;BME280;56085;48.910;9.478;2024-03-02T03:17:33;97021.44;;;11.35;50.20
36284;BME280;56085;48.910;9.478;2024-03-02T03:19:59;97024.22;;;11.21;50.15
36284;BME280;56085;48.910;9.478;2024-03-02T03:22:25;97026.19;;;11.27;49.86
36284;BME280;56085;48.910;9.478;2024-03-02T03:24:51;97023.44;;;11.24;49.85
36284;BME280;56085;48.910;9.478;2024-03-02T03:27:16;97026.59;;;11.29;49.46
36284;BME280;56085;48.910;9.478;2024-03-02T03:29:41;97019.84;;;11.34;49.24
36284;BME280;56085;48.910;9.478;2024-03-02T03:32:07;97022.25;;;11.32;49.35
36284;BME280;56085;48.910;9.478;2024-03-02T03:34:33;97029.34;;;11.29;49.99
36284;BME280;56085;48.910;9.478;2024-03-02T03:36:58;97038.47;;;11.08;49.90
36284;BME280;56085;48.910;9.478;2024-03-02T03:39:24;97029.78;;;11.10;49.95
36284;BME280;56085;48.910;9.478;2024-03-02T03:41:49;97029.75;;;11.21;49.41
36284;BME280;56085;48.910;9.478;2024-03-02T03:44:14;97028.56;;;11.22;49.67
36284;BME280;56085;48.910;9.478;2024-03-02T03:46:39;97023.84;;;11.26;49.26
36284;BME280;56085;48.910;9.478;2024-03-02T03:49:05;97038.06;;;11.06;50.03
36284;BME280;56085;48.910;9.478;2024-03-02T03:51:30;97040.78;;;10.77;50.35
36284;BME280;56085;48.910;9.478;2024-03-02T03:53:55;97027.78;;;10.89;49.84
36284;BME280;56085;48.910;9.478;2024-03-02T03:56:21;97026.19;;;10.91;49.62
36284;BME280;56085;48.910;9.478;2024-03-02T03:58:46;97031.34;;;11.00;49.53
36284;BME280;56085;48.910;9.478;2024-03-02T04:01:11;97035.69;;;10.87;49.75
36284;BME280;56085;48.910;9.478;2024-03-02T04:03:38;97030.94;;;10.94;49.61
36284;BME280;56085;48.910;9.478;2024-03-02T04:06:03;97031.34;;;11.00;49.72
36284;BME280;56085;48.910;9.478;2024-03-02T04:08:28;97036.84;;;10.89;49.94
36284;BME280;56085;48.910;9.478;2024-03-02T04:10:54;97030.16;;;10.79;50.00
36284;BME280;56085;48.910;9.478;2024-03-02T04:13:19;97028.97;;;10.73;50.30
36284;BME280;56085;48.910;9.478;2024-03-02T04:15:44;97033.72;;;10.83;50.35
36284;BME280;56085;48.910;9.478;2024-03-02T04:18:10;97030.97;;;10.91;50.23
36284;BME280;56085;48.910;9.478;2024-03-02T04:20:35;97028.94;;;10.80;49.86
36284;BME280;56085;48.910;9.478;2024-03-02T04:23:00;97030.88;;;10.51;50.43
36284;BME280;56085;48.910;9.478;2024-03-02T04:25:26;97031.72;;;10.70;50.11
36284;BME280;56085;48.910;9.478;2024-03-02T04:27:51;97028.56;;;10.86;49.80
36284;BME280;56085;48.910;9.478;2024-03-02T04:30:16;97029.38;;;10.97;49.50
36284;BME280;56085;48.910;9.478;2024-03-02T04:32:42;97032.53;;;10.81;49.78
36284;BME280;56085;48.910;9.478;2024-03-02T04:35:11;97032.84;;;10.51;50.55
36284;BME280;56085;48.910;9.478;2024-03-02T04:37:37;97029.72;;;10.56;50.34
36284;BME280;56085;48.910;9.478;2024-03-02T04:40:02;97031.72;;;10.73;49.57
36284;BME280;56085;48.910;9.478;2024-03-02T04:42:28;97024.59;;;10.76;49.30
36284;BME280;56085;48.910;9.478;2024-03-02T04:44:53;97035.25;;;10.67;49.76
36284;BME280;56085;48.910;9.478;2024-03-02T04:47:18;97030.47;;;10.38;50.14
36284;BME280;56085;48.910;9.478;2024-03-02T04:49:44;97038.28;;;10.29;50.45
36284;BME280;56085;48.910;9.478;2024-03-02T04:52:09;97035.22;;;10.52;49.98
36284;BME280;56085;48.910;9.478;2024-03-02T04:54:35;97040.38;;;10.61;49.65
36284;BME280;56085;48.910;9.478;2024-03-02T04:57:23;97032.09;;;10.72;49.45
36284;BME280;56085;48.910;9.478;2024-03-02T04:59:48;97043.16;;;10.68;49.72
36284;BME280;56085;48.910;9.478;2024-03-02T05:02:14;97036.88;;;10.75;49.63
36284;BME280;56085;48.910;9.478;2024-03-02T05:04:39;97028.13;;;10.65;49.76
36284;BME280;56085;48.910;9.478;2024-03-02T05:07:05;97034.84;;;10.72;49.47
36284;BME280;56085;48.910;9.478;2024-03-02T05:09:30;97032.47;;;10.63;49.79
36284;BME280;56085;48.910;9.478;2024-03-02T05:11:56;97033.28;;;10.74;49.19
36284;BME280;56085;48.910;9.478;2024-03-02T05:14:39;97036.06;;;10.63;49.57
36284;BME280;56085;48.910;9.478;2024-03-02T05:17:05;97036.38;;;10.40;50.21
36284;BME280;56085;48.910;9.478;2024-03-02T05:19:30;97033.25;;;10.45;49.86
36284;BME280;56085;48.910;9.478;2024-03-02T05:21:55;97028.41;;;10.17;50.28
36284;BME280;56085;48.910;9.478;2024-03-02T05:24:21;97028.06;;;10.33;50.01
36284;BME280;56085;48.910;9.478;2024-03-02T05:26:46;97033.25;;;10.53;49.63
36284;BME280;56085;48.910;9.478;2024-03-02T05:29:11;97041.16;;;10.58;49.53
36284;BME280;56085;48.910;9.478;2024-03-02T05:31:37;97024.19;;;10.70;49.72
36284;BME280;56085;48.910;9.478;2024-03-02T05:34:02;97023.81;;;10.64;49.64
36284;BME280;56085;48.910;9.478;2024-03-02T05:36:28;97023.31;;;10.30;50.31
36284;BME280;56085;48.910;9.478;2024-03-02T05:38:53;97023.69;;;10.21;50.21
36284;BME280;56085;48.910;9.478;2024-03-02T05:41:18;97032.47;;;10.48;49.61
36284;BME280;56085;48.910;9.478;2024-03-02T05:43:43;97028.94;;;10.59;49.72
36284;BME280;56085;48.910;9.478;2024-03-02T05:46:09;97029.34;;;10.57;49.82
36284;BME280;56085;48.910;9.478;2024-03-02T05:48:34;97028.53;;;10.60;49.56
36284;BME280;56085;48.910;9.478;2024-03-02T05:50:59;97035.66;;;10.72;48.82
36284;BME280;56085;48.910;9.478;2024-03-02T05:53:24;97033.69;;;10.62;49.65
36284;BME280;56085;48.910;9.478;2024-03-02T05:55:50;97037.63;;;10.64;49.80
36284;BME280;56085;48.910;9.478;2024-03-02T05:58:20;97034.47;;;10.70;49.98
36284;BME280;56085;48.910;9.478;2024-03-02T06:01:04;97033.69;;;10.73;50.00
36284;BME280;56085;48.910;9.478;2024-03-02T06:03:30;97037.63;;;10.61;50.14
36284;BME280;56085;48.910;9.478;2024-03-02T06:05:56;97040.00;;;10.77;50.00
36284;BME280;56085;48.910;9.478;2024-03-02T06:08:21;97047.13;;;10.89;49.60
36284;BME280;56085;48.910;9.478;2024-03-02T06:10:46;97045.16;;;10.82;49.80
36284;BME280;56085;48.910;9.478;2024-03-02T06:13:12;97042.75;;;10.59;50.13
36284;BME280;56085;48.910;9.478;2024-03-02T06:15:37;97043.56;;;10.67;49.85
36284;BME280;56085;48.910;9.478;2024-03-02T06:18:02;97047.91;;;10.86;49.66
36284;BME280;56085;48.910;9.478;2024-03-02T06:20:28;97047.16;;;10.99;49.74
36284;BME280;56085;48.910;9.478;2024-03-02T06:22:56;97047.94;;;11.07;49.83
36284;BME280;56085;48.910;9.478;2024-03-02T06:25:21;97046.34;;;11.06;49.88
36284;BME280;56085;48.910;9.478;2024-03-02T06:27:46;97057.03;;;11.18;50.06
36284;BME280;56085;48.910;9.478;2024-03-02T06:30:12;97061.38;;;11.23;50.22
36284;BME280;56085;48.910;9.478;2024-03-02T06:32:37;97070.06;;;11.04;50.09
36284;BME280;56085;48.910;9.478;2024-03-02T06:35:03;97069.66;;;11.02;49.99
36284;BME280;56085;48.910;9.478;2024-03-02T06:37:29;97067.66;;;10.95;49.86
36284;BME280;56085;48.910;9.478;2024-03-02T06:39:55;97068.47;;;11.21;49.19
36284;BME280;56085;48.910;9.478;2024-03-02T06:42:20;97075.19;;;11.20;49.39
36284;BME280;56085;48.910;9.478;2024-03-02T06:44:45;97072.81;;;11.18;49.29
36284;BME280;56085;48.910;9.478;2024-03-02T06:47:10;97072.84;;;11.07;49.52
36284;BME280;56085;48.910;9.478;2024-03-02T06:49:36;97070.47;;;11.13;49.26
36284;BME280;56085;48.910;9.478;2024-03-02T06:52:01;97069.69;;;11.23;48.96
36284;BME280;56085;48.910;9.478;2024-03-02T06:54:27;97065.34;;;11.11;49.13
36284;BME280;56085;48.910;9.478;2024-03-02T06:56:52;97071.22;;;10.92;48.98
36284;BME280;56085;48.910;9.478;2024-03-02T06:59:17;97068.88;;;11.01;48.83
36284;BME280;56085;48.910;9.478;2024-03-02T07:01:43;97065.31;;;11.22;48.45
36284;BME280;56085;48.910;9.478;2024-03-02T07:04:09;97066.13;;;11.26;48.40
36284;BME280;56085;48.910;9.478;2024-03-02T07:06:34;97063.72;;;11.43;48.40
36284;BME280;56085;48.910;9.478;2024-03-02T07:08:59;97059.78;;;11.40;48.36
36284;BME280;56085;48.910;9.478;2024-03-02T07:11:24;97058.56;;;11.56;48.12
36284;BME280;56085;48.910;9.478;2024-03-02T07:13:49;97056.97;;;11.73;47.99
36284;BME280;56085;48.910;9.478;2024-03-02T07:16:15;97060.88;;;11.82;47.90
36284;BME280;56085;48.910;9.478;2024-03-02T07:19:09;97063.28;;;11.95;47.73
36284;BME280;56085;48.910;9.478;2024-03-02T07:21:35;97062.09;;;11.78;47.84
36284;BME280;56085;48.910;9.478;2024-03-02T07:24:00;97066.84;;;11.66;47.61
36284;BME280;56085;48.910;9.478;2024-03-02T07:26:28;97068.84;;;11.59;47.43
36284;BME280;56085;48.910;9.478;2024-03-02T07:28:55;97059.31;;;11.81;47.33
36284;BME280;56085;48.910;9.478;2024-03-02T07:31:20;97064.06;;;11.99;47.15
36284;BME280;56085;48.910;9.478;2024-03-02T07:33:46;97066.00;;;12.05;47.04
36284;BME280;56085;48.910;9.478;2024-03-02T07:36:14;97060.75;;;12.29;47.19
36284;BME280;56085;48.910;9.478;2024-03-02T07:38:40;97059.91;;;12.43;46.99
36284;BME280;56085;48.910;9.478;2024-03-02T07:41:06;97056.63;;;12.63;47.03
36284;BME280;56085;48.910;9.478;2024-03-02T07:43:32;97059.72;;;12.79;47.03
36284;BME280;56085;48.910;9.478;2024-03-02T07:45:58;97064.34;;;12.97;46.53
36284;BME280;56085;48.910;9.478;2024-03-02T07:48:24;97061.91;;;13.02;47.06
36284;BME280;56085;48.910;9.478;2024-03-02T07:50:50;97072.22;;;13.05;47.14
36284;BME280;56085;48.910;9.478;2024-03-02T07:53:15;97066.88;;;13.29;46.93
36284;BME280;56085;48.910;9.478;2024-03-02T07:55:40;97073.97;;;13.34;47.39
36284;BME280;56085;48.910;9.478;2024-03-02T07:58:06;97072.19;;;13.58;46.99
36284;BME280;56085;48.910;9.478;2024-03-02T08:00:31;97074.41;;;13.74;46.96
36284;BME280;56085;48.910;9.478;2024-03-02T08:02:57;97079.66;;;13.65;46.73
36284;BME280;56085;48.910;9.478;2024-03-02T08:05:22;97070.03;;;13.76;46.52
36284;BME280;56085;48.910;9.478;2024-03-02T08:07:48;97075.31;;;14.02;46.19
36284;BME280;56085;48.910;9.478;2024-03-02T08:10:13;97070.63;;;13.95;46.58
36284;BME280;56085;48.910;9.478;2024-03-02T08:12:39;97078.75;;;14.17;45.99
36284;BME280;56085;48.910;9.478;2024-03-02T08:15:05;97080.19;;;14.28;45.80
36284;BME280;56085;48.910;9.478;2024-03-02T08:17:30;97081.84;;;14.22;46.12
36284;BME280;56085;48.910;9.478;2024-03-02T08:19:56;97082.28;;;14.52;45.64
36284;BME280;56085;48.910;9.478;2024-03-02T08:22:23;97079.75;;;14.30;46.17
36284;BME280;56085;48.910;9.478;2024-03-02T08:24:50;97079.22;;;14.42;46.14
36284;BME280;56085;48.910;9.478;2024-03-02T08:27:15;97074.59;;;14.63;46.03
36284;BME280;56085;48.910;9.478;2024-03-02T08:29:41;97074.31;;;14.84;45.57
36284;BME280;56085;48.910;9.478;2024-03-02T08:32:06;97078.47;;;15.00;45.49
36284;BME280;56085;48.910;9.478;2024-03-02T08:34:32;97082.94;;;14.94;45.61
36284;BME280;56085;48.910;9.478;2024-03-02T08:36:59;97078.78;;;15.06;45.18
36284;BME280;56085;48.910;9.478;2024-03-02T08:39:24;97076.25;;;15.15;45.12
36284;BME280;56085;48.910;9.478;2024-03-02T08:41:49;97077.03;;;15.15;44.76
36284;BME280;56085;48.910;9.478;2024-03-02T08:44:15;97078.06;;;15.25;44.99
36284;BME280;56085;48.910;9.478;2024-03-02T08:46:41;97080.22;;;15.14;44.75
36284;BME280;56085;48.910;9.478;2024-03-02T08:49:06;97070.88;;;15.28;44.56
36284;BME280;56085;48.910;9.478;2024-03-02T08:51:32;97064.88;;;15.29;44.72
36284;BME280;56085;48.910;9.478;2024-03-02T08:53:58;97064.22;;;15.22;44.85
36284;BME280;56085;48.910;9.478;2024-03-02T08:56:24;97060.97;;;14.99;44.86
36284;BME280;56085;48.910;9.478;2024-03-02T08:58:50;97055.22;;;15.38;44.42
36284;BME280;56085;48.910;9.478;2024-03-02T09:01:16;97060.63;;;15.45;44.52
36284;BME280;56085;48.910;9.478;2024-03-02T09:03:42;97049.63;;;15.38;44.45
36284;BME280;56085;48.910;9.478;2024-03-02T09:06:11;97050.84;;;15.36;44.19
36284;BME280;56085;48.910;9.478;2024-03-02T09:08:36;97046.47;;;15.35;44.18
36284;BME280;56085;48.910;9.478;2024-03-02T09:11:06;97051.72;;;15.53;43.80
36284;BME280;56085;48.910;9.478;2024-03-02T09:13:32;97047.50;;;15.45;44.12
36284;BME280;56085;48.910;9.478;2024-03-02T09:15:57;97055.53;;;15.63;43.55
36284;BME280;56085;48.910;9.478;2024-03-02T09:18:22;97040.34;;;15.68;43.23
36284;BME280;56085;48.910;9.478;2024-03-02T09:20:48;97048.13;;;15.80;43.26
36284;BME280;56085;48.910;9.478;2024-03-02T09:23:13;97046.31;;;15.90;43.02
36284;BME280;56085;48.910;9.478;2024-03-02T09:25:38;97039.63;;;15.87;42.90
36284;BME280;56085;48.910;9.478;2024-03-02T09:28:04;97035.56;;;15.68;42.79
36284;BME280;56085;48.910;9.478;2024-03-02T09:30:29;97026.19;;;16.22;42.55
36284;BME280;56085;48.910;9.478;2024-03-02T09:32:54;97033.25;;;16.47;42.06
36284;BME280;56085;48.910;9.478;2024-03-02T09:35:20;97033.13;;;16.34;42.29
36284;BME280;56085;48.910;9.478;2024-03-02T09:37:45;97034.59;;;16.75;41.62
36284;BME280;56085;48.910;9.478;2024-03-02T09:40:10;97028.94;;;16.79;41.59
36284;BME280;56085;48.910;9.478;2024-03-02T09:42:36;97030.25;;;17.27;41.32
36284;BME280;56085;48.910;9.478;2024-03-02T09:45:02;97031.94;;;17.54;40.88
36284;BME280;56085;48.910;9.478;2024-03-02T09:47:27;97020.63;;;17.28;40.31
36284;BME280;56085;48.910;9.478;2024-03-02T09:49:53;97033.44;;;17.42;40.20
36284;BME280;56085;48.910;9.478;2024-03-02T09:52:18;97027.94;;;17.55;39.85
36284;BME280;56085;48.910;9.478;2024-03-02T09:54:44;97031.38;;;17.76;38.73
36284;BME280;56085;48.910;9.478;2024-03-02T09:57:09;97020.38;;;18.14;38.47
36284;BME280;56085;48.910;9.478;2024-03-02T09:59:35;97012.28;;;18.46;37.75
36284;BME280;56085;48.910;9.478;2024-03-02T10:02:02;97019.53;;;18.43;37.38
36284;BME280;56085;48.910;9.478;2024-03-02T10:04:30;97031.66;;;18.79;36.75
36284;BME280;56085;48.910;9.478;2024-03-02T10:07:10;97023.41;;;19.01;34.78
36284;BME280;56085;48.910;9.478;2024-03-02T10:09:36;97016.25;;;19.13;35.71
36284;BME280;56085;48.910;9.478;2024-03-02T10:12:06;97024.53;;;19.16;34.81
36284;BME280;56085;48.910;9.478;2024-03-02T10:14:32;97014.06;;;19.43;35.23
36284;BME280;56085;48.910;9.478;2024-03-02T10:17:23;97022.97;;;20.20;33.70
36284;BME280;56085;48.910;9.478;2024-03-02T10:19:56;97019.00;;;20.09;34.53
36284;BME280;56085;48.910;9.478;2024-03-02T10:22:23;97020.81;;;20.47;33.97
36284;BME280;56085;48.910;9.478;2024-03-02T10:24:48;97019.88;;;20.50;33.90
36284;BME280;56085;48.910;9.478;2024-03-02T10:27:19;97007.09;;;20.71;33.18
36284;BME280;56085;48.910;9.478;2024-03-02T10:29:47;97005.03;;;21.03;33.04
36284;BME280;56085;48.910;9.478;2024-03-02T10:32:13;97008.94;;;21.05;33.00
36284;BME280;56085;48.910;9.478;2024-03-02T10:34:43;97010.66;;;21.53;32.18
36284;BME280;56085;48.910;9.478;2024-03-02T10:37:10;97016.28;;;21.03;32.41
36284;BME280;56085;48.910;9.478;2024-03-02T10:39:36;97006.44;;;21.57;32.21
36284;BME280;56085;48.910;9.478;2024-03-02T10:42:03;97011.91;;;21.70;32.17
36284;BME280;56085;48.910;9.478;2024-03-02T10:44:28;97010.69;;;21.99;31.66
36284;BME280;56085;48.910;9.478;2024-03-02T10:46:55;97008.13;;;22.29;30.98
36284;BME280;56085;48.910;9.478;2024-03-02T10:49:22;97003.28;;;22.48;31.22
36284;BME280;56085;48.910;9.478;2024-03-02T10:51:49;96996.69;;;22.51;30.51
36284;BME280;56085;48.910;9.478;2024-03-02T10:54:14;96994.06;;;22.90;30.45
36284;BME280;56085;48.910;9.478;2024-03-02T10:56:41;96983.19;;;23.07;29.95
36284;BME280;56085;48.910;9.478;2024-03-02T10:59:28;96976.78;;;23.55;28.35
36284;BME280;56085;48.910;9.478;2024-03-02T11:01:59;96975.94;;;23.64;29.12
36284;BME280;56085;48.910;9.478;2024-03-02T11:04:29;96959.28;;;23.27;27.67
36284;BME280;56085;48.910;9.478;2024-03-02T11:07:08;96961.53;;;23.86;27.38
36284;BME280;56085;48.910;9.478;2024-03-02T11:09:37;96961.94;;;24.09;28.35
36284;BME280;56085;48.910;9.478;2024-03-02T11:12:10;96955.13;;;24.45;27.23
36284;BME280;56085;48.910;9.478;2024-03-02T11:14:40;96950.84;;;24.50;27.52
36284;BME280;56085;48.910;9.478;2024-03-02T11:17:09;96946.66;;;24.60;28.04
36284;BME280;56085;48.910;9.478;2024-03-02T11:19:35;96944.81;;;25.07;27.24
36284;BME280;56085;48.910;9.478;2024-03-02T11:22:03;96947.72;;;25.13;27.09
36284;BME280;56085;48.910;9.478;2024-03-02T11:24:30;96940.13;;;25.40;26.34
36284;BME280;56085;48.910;9.478;2024-03-02T11:27:02;96931.00;;;25.51;26.14
36284;BME280;56085;48.910;9.478;2024-03-02T11:32:06;96926.63;;;25.96;25.44
36284;BME280;56085;48.910;9.478;2024-03-02T11:34:38;96921.72;;;26.18;24.89
36284;BME280;56085;48.910;9.478;2024-03-02T11:37:05;96919.06;;;26.08;24.80
36284;BME280;56085;48.910;9.478;2024-03-02T11:39:30;96912.13;;;26.41;24.68
36284;BME280;56085;48.910;9.478;2024-03-02T11:41:56;96907.88;;;26.57;24.16
36284;BME280;56085;48.910;9.478;2024-03-02T11:44:22;96911.31;;;26.67;23.68
36284;BME280;56085;48.910;9.478;2024-03-02T11:46:59;96898.56;;;26.51;22.16
36284;BME280;56085;48.910;9.478;2024-03-02T11:52:06;96880.66;;;27.14;22.83
36284;BME280;56085;48.910;9.478;2024-03-02T11:54:36;96891.72;;;26.32;22.98
36284;BME280;56085;48.910;9.478;2024-03-02T11:57:05;96881.97;;;26.38;22.85
36284;BME280;56085;48.910;9.478;2024-03-02T11:59:31;96866.88;;;26.90;22.52
36284;BME280;56085;48.910;9.478;2024-03-02T12:01:57;96869.81;;;27.07;21.96
36284;BME280;56085;48.910;9.478;2024-03-02T12:04:23;96854.16;;;26.74;22.17
36284;BME280;56085;48.910;9.478;2024-03-02T12:07:02;96849.00;;;27.27;21.80
36284;BME280;56085;48.910;9.478;2024-03-02T12:09:28;96838.31;;;27.54;21.74
36284;BME280;56085;48.910;9.478;2024-03-02T12:14:32;96839.44;;;28.42;21.71
36284;BME280;56085;48.910;9.478;2024-03-02T12:16:58;96836.78;;;28.78;21.14
36284;BME280;56085;48.910;9.478;2024-03-02T12:19:26;96836.78;;;27.70;21.03
36284;BME280;56085;48.910;9.478;2024-03-02T12:21:59;96823.09;;;27.80;20.95
36284;BME280;56085;48.910;9.478;2024-03-02T12:24:28;96831.16;;;28.38;21.02
36284;BME280;56085;48.910;9.478;2024-03-02T12:26:54;96822.59;;;27.93;20.76
36284;BME280;56085;48.910;9.478;2024-03-02T12:29:20;96821.09;;;28.03;20.38
36284;BME280;56085;48.910;9.478;2024-03-02T12:31:48;96810.41;;;28.83;20.14
36284;BME280;56085;48.910;9.478;2024-03-02T12:34:15;96815.81;;;28.86;19.55
36284;BME280;56085;48.910;9.478;2024-03-02T12:36:41;96812.44;;;28.99;19.33
36284;BME280;56085;48.910;9.478;2024-03-02T12:39:07;96818.41;;;29.54;18.73
36284;BME280;56085;48.910;9.478;2024-03-02T12:41:36;96809.72;;;29.77;18.74
36284;BME280;56085;48.910;9.478;2024-03-02T12:44:01;96802.16;;;31.96;17.33
36284;BME280;56085;48.910;9.478;2024-03-02T12:46:27;96795.59;;;36.14;14.03
36284;BME280;56085;48.910;9.478;2024-03-02T12:48:52;96773.34;;;38.14;12.41
36284;BME280;56085;48.910;9.478;2024-03-02T12:51:17;96778.66;;;40.27;11.05
36284;BME280;56085;48.910;9.478;2024-03-02T12:53:43;96771.25;;;41.30;10.62
36284;BME280;56085;48.910;9.478;2024-03-02T12:56:08;96760.25;;;42.50;9.66
36284;BME280;56085;48.910;9.478;2024-03-02T12:58:39;96761.91;;;42.53;8.92
36284;BME280;56085;48.910;9.478;2024-03-02T13:01:06;96751.56;;;44.88;7.29
36284;BME280;56085;48.910;9.478;2024-03-02T13:03:36;96745.88;;;46.33;7.50
36284;BME280;56085;48.910;9.478;2024-03-02T13:06:01;96755.38;;;46.20;7.04
36284;BME280;56085;48.910;9.478;2024-03-02T13:08:27;96751.97;;;46.65;6.94
36284;BME280;56085;48.910;9.478;2024-03-02T13:10:52;96755.50;;;46.49;6.60